createdAt,value
2023-01-19T00:01:43.362Z,43.00
2023-01-19T00:04:12.868Z,46.00
2023-01-19T00:06:41.045Z,44.70
2023-01-19T00:09:09.641Z,45.40
2023-01-19T00:11:38.315Z,44.10
2023-01-19T00:14:06.595Z,46.80
2023-01-19T00:16:35.033Z,47.80
2023-01-19T00:19:03.665Z,38.90
2023-01-19T00:21:31.856Z,34.70
2023-01-19T00:24:00.954Z,23.10
2023-01-19T00:26:29.134Z,27.60
2023-01-19T00:28:57.299Z,29.90
2023-01-19T00:31:25.484Z,27.70
2023-01-19T00:33:53.601Z,34.40
2023-01-19T00:36:21.720Z,28.70
2023-01-19T00:38:50.009Z,29.90
2023-01-19T00:41:18.402Z,26.30
2023-01-19T00:43:46.659Z,33.50
2023-01-19T00:46:14.771Z,30.70
2023-01-19T00:48:43.015Z,28.90
2023-01-19T00:51:11.194Z,30.00
2023-01-19T00:53:39.367Z,24.70
2023-01-19T00:56:07.963Z,23.20
2023-01-19T00:58:36.136Z,20.00
2023-01-19T01:01:06.143Z,19.10
2023-01-19T01:03:34.433Z,9.90
2023-01-19T01:06:03.822Z,8.60
2023-01-19T01:08:31.990Z,9.30
2023-01-19T01:11:00.496Z,5.70
2023-01-19T01:13:29.296Z,6.70
2023-01-19T01:15:57.984Z,8.00
2023-01-19T01:18:26.458Z,8.00
2023-01-19T01:21:04.284Z,8.40
2023-01-19T01:23:33.572Z,7.90
2023-01-19T01:26:02.359Z,7.50
2023-01-19T01:28:31.763Z,7.80
2023-01-19T01:31:00.044Z,7.80
2023-01-19T01:33:40.530Z,7.00
2023-01-19T01:36:12.015Z,6.40
2023-01-19T01:38:41.614Z,6.80
2023-01-19T01:41:11.303Z,5.90
2023-01-19T01:43:58.679Z,6.90
2023-01-19T01:46:28.647Z,4.80
2023-01-19T01:49:19.652Z,3.90
2023-01-19T01:51:53.464Z,4.30
2023-01-19T01:54:25.323Z,6.60
2023-01-19T01:56:57.646Z,3.80
2023-01-19T01:59:35.018Z,5.00
2023-01-19T02:02:31.349Z,4.20
2023-01-19T02:05:04.311Z,5.50
2023-01-19T02:08:01.156Z,7.10
2023-01-19T02:10:47.662Z,5.20
2023-01-19T02:13:22.089Z,6.40
2023-01-19T02:15:53.448Z,5.90
2023-01-19T02:18:23.955Z,5.70
2023-01-19T02:21:12.739Z,5.40
2023-01-19T02:23:45.206Z,6.70
2023-01-19T02:26:17.801Z,4.50
2023-01-19T02:29:07.879Z,5.60
2023-01-19T02:31:37.797Z,6.70
2023-01-19T02:34:08.876Z,6.30
2023-01-19T02:36:56.077Z,4.70
2023-01-19T02:39:36.977Z,5.70
2023-01-19T02:42:13.424Z,4.40
2023-01-19T02:44:45.380Z,4.70
2023-01-19T02:47:14.509Z,4.30
2023-01-19T02:49:42.653Z,4.40
2023-01-19T02:52:16.511Z,5.80
2023-01-19T02:55:02.260Z,6.10
2023-01-19T02:57:36.676Z,6.10
2023-01-19T03:00:42.845Z,6.80
2023-01-19T03:03:22.797Z,3.90
2023-01-19T03:06:09.012Z,4.70
2023-01-19T03:08:46.185Z,5.50
2023-01-19T03:11:15.687Z,4.70
2023-01-19T03:13:54.727Z,4.70
2023-01-19T03:16:50.216Z,5.10
2023-01-19T03:19:23.956Z,4.50
2023-01-19T03:21:58.271Z,4.70
2023-01-19T03:24:31.052Z,4.60
2023-01-19T03:27:04.915Z,4.60
2023-01-19T03:29:37.137Z,5.90
2023-01-19T03:32:09.614Z,6.30
2023-01-19T03:34:39.744Z,5.90
2023-01-19T03:37:10.687Z,6.70
2023-01-19T03:39:38.973Z,4.20
2023-01-19T03:42:11.652Z,8.00
2023-01-19T03:44:42.690Z,7.60
2023-01-19T03:47:13.832Z,9.30
2023-01-19T03:49:45.294Z,6.90
2023-01-19T03:52:14.385Z,10.10
2023-01-19T03:54:43.596Z,7.50
2023-01-19T03:57:11.615Z,7.40
2023-01-19T03:59:39.752Z,7.00
2023-01-19T04:02:08.242Z,9.20
2023-01-19T04:04:36.638Z,6.00
2023-01-19T04:07:04.769Z,7.70
2023-01-19T04:09:33.055Z,9.70
2023-01-19T04:12:02.045Z,8.70
2023-01-19T04:14:30.123Z,11.80
2023-01-19T04:16:58.403Z,11.20
2023-01-19T04:19:26.577Z,10.40
2023-01-19T04:21:55.989Z,9.50
2023-01-19T04:24:24.128Z,11.50
2023-01-19T04:26:53.680Z,9.40
2023-01-19T04:29:21.848Z,10.60
2023-01-19T04:31:50.028Z,7.60
2023-01-19T04:34:18.298Z,8.70
2023-01-19T04:36:47.099Z,11.20
2023-01-19T04:39:15.774Z,7.30
2023-01-19T04:41:44.164Z,8.00
2023-01-19T04:44:12.345Z,6.80
2023-01-19T04:46:40.670Z,8.60
2023-01-19T04:49:10.036Z,8.80
2023-01-19T04:51:38.687Z,5.40
2023-01-19T04:54:09.376Z,7.10
2023-01-19T04:56:38.752Z,8.60
2023-01-19T04:59:07.561Z,8.40
2023-01-19T05:01:37.126Z,8.90
2023-01-19T05:04:07.317Z,6.30
2023-01-19T05:06:36.189Z,6.00
2023-01-19T05:09:04.851Z,7.10
2023-01-19T05:11:33.038Z,8.10
2023-01-19T05:14:01.320Z,10.30
2023-01-19T05:16:29.881Z,5.60
2023-01-19T05:18:58.296Z,5.50
2023-01-19T05:21:26.557Z,5.40
2023-01-19T05:23:54.738Z,5.40
2023-01-19T05:26:23.283Z,5.50
2023-01-19T05:28:51.858Z,5.50
2023-01-19T05:31:20.280Z,6.00
2023-01-19T05:33:49.180Z,7.10
2023-01-19T05:36:17.255Z,5.50
2023-01-19T05:38:49.853Z,6.20
2023-01-19T05:41:19.258Z,8.10
2023-01-19T05:43:47.635Z,5.50
2023-01-19T05:46:16.196Z,5.60
2023-01-19T05:48:45.314Z,5.70
2023-01-19T05:51:13.589Z,5.50
2023-01-19T05:53:42.287Z,5.80
2023-01-19T05:56:10.964Z,7.30
2023-01-19T05:58:39.978Z,8.40
2023-01-19T06:01:10.522Z,6.00
2023-01-19T06:03:40.004Z,7.10
2023-01-19T06:06:08.284Z,7.50
2023-01-19T06:08:36.662Z,7.70
2023-01-19T06:11:05.960Z,6.80
2023-01-19T06:13:34.843Z,6.40
2023-01-19T06:16:03.693Z,12.00
2023-01-19T06:18:32.044Z,9.90
2023-01-19T06:21:04.586Z,4.80
2023-01-19T06:23:35.056Z,8.10
2023-01-19T06:26:04.556Z,7.90
2023-01-19T06:28:33.037Z,7.90
2023-01-19T06:31:01.871Z,7.60
2023-01-19T06:33:30.099Z,10.00
2023-01-19T06:35:58.916Z,7.30
2023-01-19T06:38:28.318Z,6.10
2023-01-19T06:41:03.432Z,7.50
2023-01-19T06:43:31.716Z,8.30
2023-01-19T06:46:00.867Z,7.20
2023-01-19T06:48:29.094Z,7.80
2023-01-19T06:50:59.595Z,6.80
2023-01-19T06:53:29.237Z,8.10
2023-01-19T06:56:03.655Z,9.30
2023-01-19T06:58:34.935Z,6.60
2023-01-19T07:01:07.136Z,9.50
2023-01-19T07:03:36.915Z,6.70
2023-01-19T07:06:09.197Z,6.90
2023-01-19T07:08:38.280Z,8.00
2023-01-19T07:11:25.247Z,11.40
2023-01-19T07:13:57.463Z,8.90
2023-01-19T07:16:25.755Z,11.40
2023-01-19T07:18:54.420Z,7.10
2023-01-19T07:21:22.903Z,9.20
2023-01-19T07:23:52.620Z,7.60
2023-01-19T07:26:22.087Z,6.50
2023-01-19T07:28:51.651Z,7.20
2023-01-19T07:31:20.375Z,7.50
2023-01-19T07:33:48.925Z,11.50
2023-01-19T07:36:17.175Z,11.80
2023-01-19T07:38:45.364Z,10.80
2023-01-19T07:41:13.949Z,13.50
2023-01-19T07:43:42.236Z,12.40
2023-01-19T07:46:10.569Z,10.70
2023-01-19T07:48:38.999Z,11.00
2023-01-19T07:51:13.087Z,11.40
2023-01-19T07:53:42.153Z,10.60
2023-01-19T07:56:11.405Z,11.20
2023-01-19T07:58:39.994Z,10.70
2023-01-19T08:01:10.823Z,11.20
2023-01-19T08:03:40.067Z,10.30
2023-01-19T08:06:19.688Z,9.40
2023-01-19T08:08:48.883Z,9.10
2023-01-19T08:11:17.577Z,9.90
2023-01-19T08:13:45.855Z,11.60
2023-01-19T08:16:14.051Z,11.20
2023-01-19T08:18:42.767Z,10.80
2023-01-19T08:21:11.099Z,12.00
2023-01-19T08:23:39.513Z,12.30
2023-01-19T08:26:20.157Z,9.90
2023-01-19T08:28:48.423Z,10.70
2023-01-19T08:31:21.021Z,10.80
2023-01-19T08:33:50.822Z,10.70
2023-01-19T08:36:19.922Z,11.00
2023-01-19T08:38:48.505Z,9.50
2023-01-19T08:41:17.144Z,9.20
2023-01-19T08:43:46.200Z,9.10
2023-01-19T08:46:18.740Z,10.50
2023-01-19T08:48:50.743Z,12.10
2023-01-19T08:51:19.337Z,9.80
2023-01-19T08:53:47.714Z,10.90
2023-01-19T08:56:16.299Z,11.00
2023-01-19T08:58:46.690Z,9.80
2023-01-19T09:01:18.865Z,11.10
2023-01-19T09:03:47.272Z,10.50
2023-01-19T09:06:20.061Z,12.70
2023-01-19T09:08:48.437Z,12.00
2023-01-19T09:11:17.650Z,10.60
2023-01-19T09:13:46.954Z,9.70
2023-01-19T09:16:16.239Z,10.30
2023-01-19T09:18:46.246Z,9.80
2023-01-19T09:21:15.303Z,9.70
2023-01-19T09:23:43.660Z,9.30
2023-01-19T09:26:12.147Z,10.60
2023-01-19T09:28:40.402Z,9.60
2023-01-19T09:31:09.417Z,7.60
2023-01-19T09:33:38.105Z,7.50
2023-01-19T09:36:07.089Z,7.90
2023-01-19T09:38:35.471Z,6.50
2023-01-19T09:41:04.695Z,7.40
2023-01-19T09:43:47.715Z,8.50
2023-01-19T09:46:41.686Z,7.40
2023-01-19T09:49:19.327Z,5.70
2023-01-19T09:51:50.835Z,10.60
2023-01-19T09:54:24.343Z,4.60
2023-01-19T09:56:53.882Z,9.70
2023-01-19T09:59:28.998Z,12.00
2023-01-19T10:02:08.223Z,8.20
2023-01-19T10:05:08.574Z,7.50
2023-01-19T10:07:53.408Z,8.80
2023-01-19T10:10:27.943Z,5.30
2023-01-19T10:13:04.329Z,10.00
2023-01-19T10:16:11.890Z,8.50
2023-01-19T10:18:47.901Z,10.60
2023-01-19T10:21:33.997Z,8.30
2023-01-19T10:24:06.986Z,8.40
2023-01-19T10:26:41.636Z,8.10
2023-01-19T10:29:37.962Z,10.20
2023-01-19T10:32:21.468Z,7.30
2023-01-19T10:34:51.511Z,8.40
2023-01-19T10:37:38.552Z,5.80
2023-01-19T10:40:13.142Z,8.70
2023-01-19T10:42:42.654Z,11.80
2023-01-19T10:45:18.912Z,8.20
2023-01-19T10:47:49.079Z,8.80
2023-01-19T10:50:41.350Z,8.90
2023-01-19T10:53:21.970Z,11.40
2023-01-19T10:56:11.264Z,6.30
2023-01-19T10:58:40.740Z,9.90
2023-01-19T11:01:16.737Z,6.60
2023-01-19T11:03:45.500Z,8.30
2023-01-19T11:09:17.144Z,9.00
2023-01-19T11:11:49.724Z,7.50
2023-01-19T11:14:22.686Z,8.70
2023-01-19T11:17:00.212Z,6.60
2023-01-19T11:19:31.560Z,6.70
2023-01-19T11:22:21.885Z,9.80
2023-01-19T11:24:50.537Z,8.00
2023-01-19T11:27:21.716Z,7.90
2023-01-19T11:29:59.089Z,11.10
2023-01-19T11:32:27.883Z,14.50
2023-01-19T11:34:56.360Z,11.80
2023-01-19T11:37:31.313Z,11.50
2023-01-19T11:40:05.624Z,11.60
2023-01-19T11:42:36.770Z,11.90
2023-01-19T11:45:13.244Z,15.10
2023-01-19T11:47:49.431Z,11.50
2023-01-19T11:50:23.929Z,10.20
2023-01-19T11:52:59.482Z,12.80
2023-01-19T11:55:42.499Z,12.00
2023-01-19T11:58:16.533Z,12.70
2023-01-19T12:01:06.664Z,10.30
2023-01-19T12:03:42.613Z,9.00
2023-01-19T12:06:15.463Z,13.60
2023-01-19T12:09:01.679Z,12.00
2023-01-19T12:11:37.512Z,8.00
2023-01-19T12:14:15.002Z,10.70
2023-01-19T12:16:43.945Z,7.20
2023-01-19T12:19:18.759Z,6.90
2023-01-19T12:21:48.663Z,7.90
2023-01-19T12:24:33.448Z,6.80
2023-01-19T12:27:17.684Z,7.70
2023-01-19T12:29:46.593Z,7.90
2023-01-19T12:32:14.842Z,9.30
2023-01-19T12:34:46.897Z,7.30
2023-01-19T12:37:27.996Z,6.70
2023-01-19T12:40:22.357Z,8.50
2023-01-19T12:43:00.908Z,4.30
2023-01-19T12:45:35.042Z,8.80
2023-01-19T12:48:05.149Z,6.30
2023-01-19T12:50:38.342Z,4.10
2023-01-19T12:53:19.524Z,6.40
2023-01-19T12:55:59.947Z,4.80
2023-01-19T12:58:28.678Z,5.60
2023-01-19T13:01:19.362Z,4.60
2023-01-19T13:04:03.906Z,6.30
2023-01-19T13:07:10.658Z,4.00
2023-01-19T13:09:40.233Z,4.20
2023-01-19T13:12:14.653Z,5.00
2023-01-19T13:14:43.952Z,6.80
2023-01-19T13:17:32.206Z,4.30
2023-01-19T13:20:28.637Z,7.10
2023-01-19T13:23:14.938Z,7.10
2023-01-19T13:25:53.471Z,7.30
2023-01-19T13:28:30.865Z,8.20
2023-01-19T13:31:02.829Z,7.20
2023-01-19T13:33:40.856Z,6.10
2023-01-19T13:36:20.789Z,7.80
2023-01-19T13:38:51.529Z,7.40
2023-01-19T13:41:24.530Z,7.50
2023-01-19T13:44:01.801Z,8.80
2023-01-19T13:46:31.456Z,7.10
2023-01-19T13:49:13.395Z,5.70
2023-01-19T13:51:41.798Z,6.10
2023-01-19T13:54:16.323Z,5.70
2023-01-19T13:56:51.457Z,8.60
2023-01-19T13:59:19.639Z,6.40
2023-01-19T14:01:49.436Z,10.50
2023-01-19T14:04:38.143Z,10.60
2023-01-19T14:07:26.247Z,7.00
2023-01-19T14:10:16.813Z,9.90
2023-01-19T14:12:58.636Z,7.30
2023-01-19T14:15:29.201Z,8.60
2023-01-19T14:18:16.312Z,6.60
2023-01-19T14:21:14.370Z,8.50
2023-01-19T14:23:51.899Z,8.80
2023-01-19T14:26:49.256Z,7.70
2023-01-19T14:29:33.100Z,7.10
2023-01-19T14:32:01.575Z,7.60
2023-01-19T14:34:45.108Z,6.50
2023-01-19T14:37:13.532Z,8.00
2023-01-19T14:39:47.196Z,6.90
2023-01-19T14:42:21.118Z,9.10
2023-01-19T14:44:52.983Z,6.90
2023-01-19T14:47:43.487Z,7.60
2023-01-19T14:50:18.446Z,9.10
2023-01-19T14:53:03.390Z,11.20
2023-01-19T14:55:43.846Z,9.60
2023-01-19T14:58:14.181Z,9.10
2023-01-19T15:00:43.813Z,9.70
2023-01-19T15:03:12.312Z,9.70
2023-01-19T15:05:44.833Z,11.40
2023-01-19T15:08:37.740Z,11.20
2023-01-19T15:11:33.858Z,9.70
2023-01-19T15:14:03.125Z,11.30
2023-01-19T15:16:34.355Z,10.60
2023-01-19T15:19:02.692Z,10.50
2023-01-19T15:21:31.047Z,11.40
2023-01-19T15:23:59.421Z,12.00
2023-01-19T15:26:27.936Z,13.20
2023-01-19T15:28:56.497Z,14.10
2023-01-19T15:31:26.450Z,15.80
2023-01-19T15:33:54.980Z,17.30
2023-01-19T15:36:25.558Z,14.00
2023-01-19T15:38:54.195Z,19.10
2023-01-19T15:41:28.136Z,19.70
2023-01-19T15:43:57.024Z,20.90
2023-01-19T15:46:26.260Z,14.10
2023-01-19T15:48:57.375Z,14.30
2023-01-19T15:51:26.788Z,11.80
2023-01-19T15:53:55.925Z,14.80
2023-01-19T15:56:27.143Z,17.40
2023-01-19T15:58:57.047Z,18.20
2023-01-19T16:01:32.535Z,17.80
2023-01-19T16:04:04.660Z,16.20
2023-01-19T16:06:33.971Z,17.90
2023-01-19T16:09:04.018Z,21.10
2023-01-19T16:11:35.394Z,16.80
2023-01-19T16:14:03.866Z,17.50
2023-01-19T16:16:32.323Z,20.30
2023-01-19T16:19:00.889Z,31.70
2023-01-19T16:21:29.302Z,28.50
2023-01-19T16:24:00.214Z,23.50
2023-01-19T16:26:37.496Z,25.10
2023-01-19T16:29:09.022Z,25.90
2023-01-19T16:31:38.836Z,32.40
2023-01-19T16:34:08.519Z,35.20
2023-01-19T16:36:43.017Z,44.60
2023-01-19T16:39:14.366Z,25.00
2023-01-19T16:41:45.413Z,18.40
2023-01-19T16:44:16.246Z,23.20
2023-01-19T16:46:49.935Z,16.70
2023-01-19T16:49:21.417Z,14.50
2023-01-19T16:51:50.825Z,18.20
2023-01-19T16:54:25.985Z,21.00
2023-01-19T16:56:56.340Z,21.10
2023-01-19T16:59:27.630Z,25.70
2023-01-19T17:01:57.443Z,27.60
2023-01-19T17:04:27.553Z,34.20
2023-01-19T17:06:56.379Z,95.70
2023-01-19T17:09:24.745Z,39.00
2023-01-19T17:11:53.220Z,33.50
2023-01-19T17:14:22.333Z,24.00
2023-01-19T17:16:51.481Z,21.90
2023-01-19T17:19:22.287Z,16.50
2023-01-19T17:21:51.264Z,18.10
2023-01-19T17:24:19.642Z,19.70
2023-01-19T17:26:48.985Z,16.70
2023-01-19T17:29:18.953Z,16.70
2023-01-19T17:31:50.800Z,27.80
2023-01-19T17:34:22.711Z,23.80
2023-01-19T17:36:51.801Z,23.80
2023-01-19T17:39:20.273Z,24.20
2023-01-19T17:41:50.355Z,23.30
2023-01-19T17:44:20.210Z,23.60
2023-01-19T17:46:49.199Z,24.30
2023-01-19T17:49:19.444Z,30.00
2023-01-19T17:51:54.685Z,44.70
2023-01-19T17:54:23.765Z,43.10
2023-01-19T17:56:52.569Z,43.70
2023-01-19T17:59:21.273Z,46.30
2023-01-19T18:01:52.944Z,56.40
2023-01-19T18:04:22.261Z,57.00
2023-01-19T18:06:51.043Z,47.60
2023-01-19T18:09:19.689Z,45.10
2023-01-19T18:11:48.605Z,45.10
2023-01-19T18:14:19.967Z,66.90
2023-01-19T18:16:49.640Z,41.60
2023-01-19T18:19:22.545Z,30.00
2023-01-19T18:21:52.142Z,44.80
2023-01-19T18:24:21.358Z,91.70
2023-01-19T18:26:50.563Z,57.60
2023-01-19T18:29:20.885Z,37.40
2023-01-19T18:31:50.020Z,37.60
2023-01-19T18:34:20.451Z,40.60
2023-01-19T18:36:50.114Z,47.50
2023-01-19T18:39:20.894Z,48.60
2023-01-19T18:41:51.246Z,48.10
2023-01-19T18:44:20.892Z,54.00
2023-01-19T18:46:50.302Z,50.50
2023-01-19T18:49:18.991Z,47.90
2023-01-19T18:51:47.774Z,52.10
2023-01-19T18:54:17.676Z,46.00
2023-01-19T18:56:47.813Z,46.80
2023-01-19T18:59:17.850Z,47.30
2023-01-19T19:01:47.555Z,54.00
2023-01-19T19:04:16.853Z,64.20
2023-01-19T19:06:45.641Z,86.20
2023-01-19T19:09:14.428Z,74.30
2023-01-19T19:11:44.054Z,61.60
2023-01-19T19:14:13.262Z,57.00
2023-01-19T19:16:42.447Z,58.50
2023-01-19T19:19:15.852Z,59.40
2023-01-19T19:21:46.181Z,67.90
2023-01-19T19:24:15.514Z,66.60
2023-01-19T19:26:45.076Z,69.60
2023-01-19T19:29:14.809Z,84.40
2023-01-19T19:31:44.672Z,66.70
2023-01-19T19:34:16.387Z,63.60
2023-01-19T19:36:47.622Z,65.50
2023-01-19T19:39:16.762Z,51.10
2023-01-19T19:41:48.398Z,49.10
2023-01-19T19:44:17.548Z,48.40
2023-01-19T19:46:46.634Z,52.50
2023-01-19T19:49:21.517Z,52.50
2023-01-19T19:51:51.543Z,64.70
2023-01-19T19:54:20.223Z,60.80
2023-01-19T19:56:52.490Z,60.20
2023-01-19T19:59:36.709Z,58.70
2023-01-19T20:02:05.486Z,60.00
2023-01-19T20:04:36.677Z,77.00
2023-01-19T20:07:05.383Z,76.20
2023-01-19T20:09:36.601Z,80.60
2023-01-19T20:12:06.354Z,54.70
2023-01-19T20:14:36.771Z,63.60
2023-01-19T20:17:07.267Z,66.80
2023-01-19T20:19:37.257Z,57.60
2023-01-19T20:22:08.339Z,57.70
2023-01-19T20:24:38.184Z,49.50
2023-01-19T20:27:08.106Z,47.70
2023-01-19T20:29:38.614Z,55.00
2023-01-19T20:32:11.185Z,51.30
2023-01-19T20:34:40.917Z,69.90
2023-01-19T20:37:13.474Z,56.20
2023-01-19T20:39:43.908Z,54.10
2023-01-19T20:42:17.417Z,64.20
2023-01-19T20:44:50.740Z,67.80
2023-01-19T20:47:22.160Z,68.50
2023-01-19T20:49:51.461Z,65.60
2023-01-19T20:52:21.870Z,61.00
2023-01-19T20:54:52.918Z,67.10
2023-01-19T20:57:22.417Z,65.50
2023-01-19T20:59:52.334Z,70.20
2023-01-19T21:02:21.789Z,98.90
2023-01-19T21:04:53.827Z,89.20
2023-01-19T21:07:27.717Z,78.30
2023-01-19T21:09:57.767Z,66.90
2023-01-19T21:12:26.729Z,71.70
2023-01-19T21:14:55.696Z,73.40
2023-01-19T21:17:25.955Z,69.20
2023-01-19T21:19:55.500Z,60.40
2023-01-19T21:22:27.822Z,84.90
2023-01-19T21:24:58.248Z,77.80
2023-01-19T21:27:27.742Z,55.80
2023-01-19T21:29:59.091Z,51.20
2023-01-19T21:32:29.770Z,53.00
2023-01-19T21:34:58.570Z,57.80
2023-01-19T21:37:31.295Z,66.00
2023-01-19T21:40:00.151Z,71.40
2023-01-19T21:42:29.255Z,56.60
2023-01-19T21:44:57.745Z,55.00
2023-01-19T21:47:27.054Z,70.70
2023-01-19T21:49:55.657Z,65.40
2023-01-19T21:52:24.011Z,86.60
2023-01-19T21:54:52.702Z,72.40
2023-01-19T21:57:21.103Z,55.20
2023-01-19T21:59:49.675Z,60.20
2023-01-19T22:02:33.347Z,51.30
2023-01-19T22:05:06.743Z,61.00
2023-01-19T22:07:35.085Z,59.30
2023-01-19T22:10:06.474Z,54.50
2023-01-19T22:12:35.168Z,51.00
2023-01-19T22:15:03.483Z,48.00
2023-01-19T22:17:31.678Z,49.40
2023-01-19T22:20:00.045Z,43.60
2023-01-19T22:22:28.363Z,43.00
2023-01-19T22:24:56.674Z,44.70
2023-01-19T22:27:25.681Z,55.80
2023-01-19T22:29:54.209Z,45.50
2023-01-19T22:32:22.406Z,42.10
2023-01-19T22:34:50.765Z,41.80
2023-01-19T22:37:19.089Z,37.20
2023-01-19T22:39:47.423Z,38.60
2023-01-19T22:42:15.880Z,40.30
2023-01-19T22:44:44.466Z,44.50
2023-01-19T22:47:12.714Z,48.20
2023-01-19T22:49:41.287Z,57.20
2023-01-19T22:52:09.942Z,64.10
2023-01-19T22:54:38.303Z,68.20
2023-01-19T22:57:08.403Z,55.10
2023-01-19T22:59:36.748Z,48.00
2023-01-19T23:02:05.202Z,44.30
2023-01-19T23:04:33.662Z,61.20
2023-01-19T23:07:05.489Z,65.80
2023-01-19T23:09:34.484Z,50.40
2023-01-19T23:12:02.690Z,48.00
2023-01-19T23:14:31.047Z,49.90
2023-01-19T23:16:59.271Z,46.30
2023-01-19T23:19:27.985Z,45.20
2023-01-19T23:21:56.337Z,49.80
2023-01-19T23:24:24.507Z,57.40
2023-01-19T23:26:52.711Z,61.40
2023-01-19T23:29:20.994Z,57.30
2023-01-19T23:31:50.028Z,58.90
2023-01-19T23:34:18.325Z,56.70
2023-01-19T23:36:47.549Z,51.40
2023-01-19T23:39:19.840Z,52.30
2023-01-19T23:41:48.652Z,50.60
2023-01-19T23:44:17.563Z,46.90
2023-01-19T23:46:46.027Z,44.80
2023-01-19T23:49:14.335Z,52.50
2023-01-19T23:51:42.563Z,56.40
2023-01-19T23:54:12.333Z,66.40
2023-01-19T23:56:42.694Z,66.80
2023-01-19T23:59:13.469Z,61.40
